Latest Weather Observations for Thredbo Top Station

IDN60801

Issued at 3:05 am EDT Sunday 23 November 2014 (issued every 30 minutes, with the page automatically refreshed every 10 minutes)

About weather observations | Map of weather stations | Latest weather observations for NSW | Other Formats
Station Details ID: 071032 Name: THREDBO AWS Lat: -36.49 Lon: 148.29 Height: 1957.0 m
Data from the previous 72 hours. | See also: Recent months at Thredbo Top Station
Date/Time
EDT
Temp
°C
App
Temp
°C
Dew
Point
Rel
Hum
%
Delta-T
°C
Wind Press
QNH
hPa
Press
MSL
hPa
Rain
since 9 am
mm
Dir
 
Spd
km/h
Gust
km/h
Spd
kts
Gust
kts
23/03:00am 10.5 6.9 6.6 77 2.0 NW 15 24 8 13 1015.5 1014.2 0.0
23/02:30am 10.4 6.4 6.5 77 2.0 WNW 17 22 9 12 1015.8 1014.6 0.0
23/02:00am 10.4 5.8 6.4 76 2.0 WNW 20 30 11 16 1016.5 1015.3 0.0
23/01:30am 10.7 5.7 6.5 75 2.1 W 22 32 12 17 1016.2 1014.9 0.0
23/01:00am 10.7 5.8 6.8 77 2.0 W 22 37 12 20 1016.6 1015.4 0.0
23/12:31am 11.5 4.1 6.8 73 2.4 W 35 54 19 29 1016.6 1015.4 0.0
23/12:30am 11.5 3.7 6.6 72 2.5 W 37 54 20 29 1016.7 1015.5 0.0
23/12:00am 10.8 3.8 5.8 71 2.5 W 32 52 17 28 1017.5 1016.3 0.0
 
Date/Time
EDT
Temp
°C
App
Temp
°C
Dew
Point
Rel
Hum
%
Delta-T
°C
Wind Press
QNH
hPa
Press
MSL
hPa
Rain
since 9 am
mm
Dir
 
Spd
km/h
Gust
km/h
Spd
kts
Gust
kts
22/11:30pm 12.1 3.5 4.8 61 3.6 WNW 39 57 21 31 1017.3 1016.1 0.0
22/11:18pm 12.0 3.7 4.2 59 3.8 WNW 37 46 20 25 1017.8 1016.6 0.0
22/11:06pm 13.0 0.9 4.2 55 4.3 WNW 57 80 31 43 1017.3 1016.1 0.0
22/11:00pm 12.9 1.2 3.6 53 4.5 WNW 54 69 29 37 1017.4 1016.2 0.0
22/10:30pm 13.1 3.1 2.4 48 5.1 NW 44 63 24 34 1017.6 1016.5 0.0
22/10:00pm 13.3 3.5 2.5 48 5.1 NW 43 61 23 33 1017.3 1016.1 0.0
22/09:38pm 13.8 3.7 1.5 43 5.8 NW 44 67 24 36 1017.2 1016.0 0.0
22/09:30pm 13.4 3.4 2.0 46 5.4 NW 44 59 24 32 1017.1 1015.9 0.0
22/09:25pm 13.4 4.0 2.3 47 5.3 NW 41 59 22 32 1017.2 1016.0 0.0
22/09:15pm 13.4 4.4 2.3 47 5.3 NW 39 48 21 26 1017.2 1016.0 0.0
22/09:04pm 13.6 1.2 2.5 47 5.3 NNW 57 76 31 41 1017.0 1015.7 0.0
22/09:00pm 13.5 0.7 2.7 48 5.2 NNW 59 76 32 41 1016.8 1015.6 0.0
22/08:37pm 13.4 2.0 2.6 48 5.2 NNW 52 70 28 38 1016.3 1015.0 0.0
22/08:30pm 13.1 2.4 2.6 49 5.0 NNW 48 63 26 34 1016.3 1015.0 0.0
22/08:00pm 13.4 3.7 2.6 48 5.2 NNW 43 57 23 31 1016.3 1015.0 0.0
22/07:30pm 13.7 2.6 2.6 47 5.3 NNW 50 65 27 35 1016.3 1015.0 0.0
22/07:00pm 13.8 4.1 2.7 47 5.3 NNW 43 52 23 28 1016.2 1014.9 0.0
22/06:30pm 13.8 6.3 3.3 49 5.1 NW 32 44 17 24 1015.9 1014.7 0.0
22/06:00pm 14.3 5.4 2.9 46 5.5 NW 39 52 21 28 1016.2 1014.9 0.0
22/05:30pm 14.5 6.1 1.8 42 6.0 WNW 35 50 19 27 1016.4 1015.2 0.0
22/05:00pm 14.6 6.7 4.6 51 5.0 NW 35 54 19 29 1016.6 1015.4 0.0
22/04:32pm 15.1 7.7 5.0 51 5.1 NW 33 52 18 28 1016.4 1015.2 0.0
22/04:30pm 15.1 7.7 5.0 51 5.1 NW 33 46 18 25 1016.5 1015.3 0.0
22/04:00pm 15.2 7.3 4.3 48 5.5 NW 35 52 19 28 1016.7 1015.5 0.0
22/03:32pm 14.9 7.0 4.6 50 5.2 WNW 35 54 19 29 1016.6 1015.4 0.0
22/03:30pm 14.8 6.5 4.2 49 5.3 WNW 37 54 20 29 1016.7 1015.5 0.0
22/03:00pm 15.7 7.4 4.4 47 5.7 WNW 37 56 20 30 1016.8 1015.6 0.0
22/02:30pm 15.0 7.3 3.5 46 5.7 NW 33 52 18 28 1016.7 1015.5 0.0
22/02:10pm 15.9 7.8 3.0 42 6.3 NW 35 54 19 29 1016.6 1015.4 0.0
22/02:00pm 15.8 7.4 1.5 38 6.8 WNW 35 52 19 28 1016.5 1015.3 0.0
22/01:30pm 15.6 7.7 2.4 41 6.4 WNW 33 48 18 26 1016.6 1015.4 0.0
22/01:00pm 16.6 8.6 0.7 34 7.5 WNW 32 50 17 27 1016.5 1015.3 0.0
22/12:33pm 17.3 9.6 2.5 37 7.3 WNW 32 50 17 27 1016.2 1014.9 0.0
22/12:30pm 16.7 8.2 1.2 35 7.4 WNW 35 50 19 27 1016.3 1015.0 0.0
22/12:00pm 15.9 6.5 0.1 34 7.3 NW 39 50 21 27 1016.6 1015.4 0.0
22/11:31am 15.9 7.9 -2.6 28 8.1 NW 30 48 16 26 1016.4 1015.2 0.0
22/11:30am 15.9 7.4 -3.1 27 8.2 NW 32 48 17 26 1016.4 1015.2 0.0
22/11:17am 16.3 8.3 -2.2 28 8.2 NW 30 48 16 26 1016.3 1015.0 0.0
22/11:00am 15.6 7.2 -2.8 28 8.0 NW 32 48 17 26 1016.5 1015.3 0.0
22/10:30am 14.1 5.5 -2.8 31 7.2 NW 33 46 18 25 1016.6 1015.4 0.0
22/10:00am 13.5 4.7 1.2 43 5.7 NW 37 59 20 32 1016.8 1015.6 0.0
22/09:53am 13.2 4.6 0.3 41 5.9 NW 35 54 19 29 1017.0 1015.7 0.0
22/09:30am 12.9 4.2 1.9 47 5.2 NW 37 50 20 27 1016.8 1015.6 0.0
22/09:17am 12.9 4.3 2.7 50 4.9 NW 37 56 20 30 1017.0 1015.7 0.0
22/09:00am 11.5 1.9 0.9 48 4.8 NNW 41 57 22 31 1017.0 1015.7 0.0
22/08:30am 11.1 0.2 1.4 51 4.4 NNW 48 67 26 36 1016.7 1015.5 0.0
22/08:00am 10.4 -0.5 1.2 53 4.2 NNW 48 61 26 33 1016.6 1015.4 0.0
22/07:30am 10.1 -1.7 0.4 51 4.3 NNW 52 65 28 35 1016.4 1015.2 0.0
22/07:00am 9.7 -1.6 0.9 54 3.9 NNW 50 61 27 33 1016.0 1014.8 0.0
22/06:30am 9.5 -2.4 -0.4 50 4.3 NNW 52 61 28 33 1015.6 1014.3 0.0
22/06:00am 9.1 -2.6 1.3 58 3.5 NNW 52 61 28 33 1015.5 1014.2 0.0
22/05:30am 8.7 -2.3 0.7 57 3.5 NNW 48 56 26 30 1015.0 1013.7 0.0
22/05:00am 8.7 -2.9 1.8 62 3.1 NNW 52 59 28 32 1014.9 1013.6 0.0
22/04:30am 8.8 -3.1 2.4 64 2.9 NNW 54 63 29 34 1014.8 1013.5 0.0
22/04:00am 8.5 -3.0 2.5 66 2.7 NNW 52 61 28 33 1015.2 1014.0 0.0
22/03:30am 8.6 -1.8 2.2 64 2.9 NNW 46 56 25 30 1015.5 1014.2 0.0
22/03:00am 8.7 -1.1 2.5 65 2.8 NNW 43 52 23 28 1015.6 1014.3 0.0
22/02:30am 8.7 -0.7 2.3 64 2.9 NNW 41 48 22 26 1015.9 1014.7 0.0
22/02:00am 8.7 -0.3 2.5 65 2.8 NNW 39 48 21 26 1016.2 1014.9 0.0
22/01:30am 8.8 0.2 2.4 64 2.9 NNW 37 46 20 25 1016.3 1015.0 0.0
22/01:00am 8.4 0.6 2.8 68 2.6 NNW 33 41 18 22 1016.6 1015.4 0.0
22/12:30am 8.5 1.8 3.8 72 2.2 NW 28 33 15 18 1017.0 1015.7 0.0
22/12:00am 7.9 2.1 4.3 78 1.7 NW 24 32 13 17 1017.2 1016.0 0.0
 
Date/Time
EDT
Temp
°C
App
Temp
°C
Dew
Point
Rel
Hum
%
Delta-T
°C
Wind Press
QNH
hPa
Press
MSL
hPa
Rain
since 9 am
mm
Dir
 
Spd
km/h
Gust
km/h
Spd
kts
Gust
kts
21/11:30pm 8.1 2.4 4.7 79 1.6 NW 24 32 13 17 1017.2 1016.0 0.0
21/11:00pm 8.4 3.4 4.4 76 1.9 NW 20 26 11 14 1017.2 1016.0 0.0
21/10:30pm 8.6 3.1 4.0 73 2.2 NW 22 30 12 16 1017.1 1015.9 0.0
21/10:00pm 8.9 4.0 3.9 71 2.4 NW 19 26 10 14 1016.8 1015.6 0.0
21/09:30pm 8.8 4.9 3.4 69 2.5 NW 13 26 7 14 1016.4 1015.2 0.0
21/09:00pm 9.5 3.4 3.0 64 3.0 NW 24 37 13 20 1015.9 1014.7 0.0
21/08:30pm 9.9 2.0 2.3 59 3.5 NW 33 48 18 26 1015.2 1014.0 0.0
21/08:11pm 10.2 1.5 2.1 57 3.7 NW 37 56 20 30 1014.9 1013.6 0.0
21/08:00pm 10.4 1.1 2.7 59 3.6 NW 41 57 22 31 1014.8 1013.5 0.0
21/07:30pm 10.7 2.2 3.3 60 3.5 NW 37 56 20 30 1014.4 1013.2 0.0
21/07:00pm 11.4 2.4 2.7 55 4.1 NW 39 57 21 31 1013.9 1012.6 0.0
21/06:43pm 11.9 1.4 3.4 56 4.1 NNW 48 67 26 36 1013.6 1012.3 0.0
21/06:30pm 12.0 1.7 2.7 53 4.4 NW 46 61 25 33 1013.4 1012.1 0.0
21/06:00pm 12.5 2.2 4.5 58 4.0 NW 48 70 26 38 1012.8 1011.5 0.0
21/05:30pm 12.9 2.3 5.3 60 3.8 NW 50 70 27 38 1012.5 1011.2 0.0
21/05:00pm 13.1 2.6 5.5 60 3.9 NW 50 69 27 37 1012.5 1011.2 0.0
21/04:39pm 12.9 1.9 4.8 58 4.0 NW 52 70 28 38 1012.5 1011.2 0.0
21/04:30pm 12.9 1.3 5.6 61 3.7 NW 56 70 30 38 1012.5 1011.2 0.0
21/04:00pm 12.7 0.0 4.9 59 3.9 NNW 61 80 33 43 1012.4 1011.0 0.0
21/03:30pm 13.0 1.2 5.9 62 3.6 NW 57 78 31 42 1012.2 1010.8 0.0
21/03:00pm 12.7 1.8 7.2 69 2.9 NW 54 72 29 39 1012.3 1010.9 0.0
21/02:30pm 12.9 2.0 7.1 68 3.0 NW 54 76 29 41 1012.5 1011.2 0.0
21/02:00pm 12.3 1.4 7.2 71 2.7 NW 54 74 29 40 1012.3 1010.9 0.0
21/01:30pm 12.6 1.7 7.1 69 2.9 NW 54 72 29 39 1012.6 1011.3 0.0
21/01:00pm 11.4 1.5 8.1 80 1.7 NW 50 69 27 37 1012.7 1011.4 0.0
21/12:32pm 10.8 0.3 7.3 79 1.8 NW 52 70 28 38 1013.1 1011.7 0.0
21/12:30pm 10.9 -0.1 7.0 77 2.0 NW 54 70 29 38 1013.0 1011.6 0.0
21/12:00pm 10.6 1.7 7.8 83 1.5 NW 44 63 24 34 1013.0 1011.6 0.0
21/11:30am 10.4 0.0 7.8 84 1.4 NW 52 74 28 40 1013.1 1011.7 0.0
21/11:00am 11.3 1.2 7.4 77 2.0 NW 50 72 27 39 1012.3 1010.9 0.0
21/10:30am 10.2 -0.8 8.3 88 1.0 NW 56 74 30 40 1012.0 1010.7 0.0
21/10:00am 8.9 -0.9 8.6 98 0.2 WNW 50 70 27 38 1012.4 1011.0 0.0
21/09:31am 8.5 -2.7 8.4 99 0.1 WNW 57 76 31 41 1012.3 1010.9 0.0
21/09:30am 8.6 -2.9 8.5 99 0.1 WNW 59 76 32 41 1012.2 1010.8 0.0
21/09:00am 9.2 -1.6 9.1 99 0.1 NW 56 82 30 44 1011.8 1010.4 0.2
21/08:30am 8.5 -0.6 8.4 99 0.1 WNW 46 65 25 35 1011.4 1010.0 0.2
21/08:00am 8.7 -0.4 8.3 97 0.2 NW 46 67 25 36 1010.9 1009.5 0.2
21/07:30am 8.6 -1.6 7.1 90 0.8 NW 50 72 27 39 1010.9 1009.5 0.2
21/07:00am 8.6 -1.8 6.1 84 1.2 NW 50 76 27 41 1010.4 1009.0 0.2
21/06:30am 9.0 -2.6 5.7 80 1.6 NW 56 78 30 42 1010.1 1008.7 0.2
21/06:00am 9.2 -1.8 4.8 74 2.1 NW 52 78 28 42 1009.8 1008.3 0.2
21/05:30am 9.5 0.1 4.7 72 2.3 NW 43 67 23 36 1009.6 1008.2 0.2
21/05:00am 9.9 0.5 4.5 69 2.6 NW 43 67 23 36 1009.5 1008.1 0.2
21/04:30am 10.2 0.8 4.6 68 2.7 NW 43 67 23 36 1009.6 1008.2 0.2
21/04:00am 11.0 0.2 4.2 63 3.3 WNW 50 70 27 38 1009.8 1008.3 0.2
21/03:30am 10.7 0.8 4.6 66 3.0 WNW 46 67 25 36 1010.0 1008.6 0.2
21/03:00am 10.3 3.2 5.3 71 2.5 NW 32 54 17 29 1010.7 1009.3 0.0
21/02:55am 9.5 3.2 5.7 77 1.9 NW 28 46 15 25 1010.9 1009.5 0.0
21/02:30am 9.8 2.7 5.6 75 2.1 NW 32 48 17 26 1011.9 1010.6 0.0
21/02:00am 10.6 4.5 4.9 68 2.8 W 26 44 14 24 1012.4 1011.0 0.0
21/01:30am 9.6 5.7 5.2 74 2.2 W 15 26 8 14 1012.5 1011.2 0.0
21/01:00am 9.7 4.5 5.3 74 2.2 W 22 35 12 19 1014.0 1012.7 0.0
21/12:30am 11.7 7.3 2.7 54 4.2 W 15 24 8 13 1013.4 1012.1 0.0
21/12:00am 12.1 7.6 2.0 50 4.7 W 15 24 8 13 1013.8 1012.4 0.0
 
Date/Time
EDT
Temp
°C
App
Temp
°C
Dew
Point
Rel
Hum
%
Delta-T
°C
Wind Press
QNH
hPa
Press
MSL
hPa
Rain
since 9 am
mm
Dir
 
Spd
km/h
Gust
km/h
Spd
kts
Gust
kts
20/11:30pm 12.5 7.9 1.5 47 5.1 W 15 26 8 14 1013.6 1012.3 0.0
20/11:00pm 12.4 8.5 1.4 47 5.1 W 11 17 6 9 1013.6 1012.3 0.0
20/10:30pm 12.9 9.0 1.3 45 5.4 W 11 19 6 10 1013.6 1012.3 0.0
20/10:00pm 12.9 9.9 1.0 44 5.5 WNW 6 9 3 5 1013.9 1012.6 0.0
20/09:30pm 13.2 10.0 0.9 43 5.7 W 7 11 4 6 1013.9 1012.6 0.0
20/09:00pm 13.4 10.4 0.8 42 5.8 W 6 9 3 5 1013.5 1012.2 0.0
20/08:30pm 13.8 10.2 0.5 40 6.1 W 9 19 5 10 1013.4 1012.1 0.0
20/08:00pm 14.7 8.9 -0.2 36 6.8 NNW 20 32 11 17 1013.2 1011.9 0.0
20/07:30pm 14.8 8.2 -0.1 36 6.8 NNW 24 35 13 19 1013.0 1011.6 0.0
20/07:00pm 14.5 8.4 0.4 38 6.5 NNW 22 28 12 15 1012.8 1011.5 0.0
20/06:30pm 14.9 8.7 0.0 36 6.8 NNW 22 32 12 17 1012.7 1011.4 0.0
20/06:00pm 14.8 8.3 0.6 38 6.6 NNW 24 35 13 19 1013.0 1011.6 0.0
20/05:30pm 14.8 5.9 1.0 39 6.4 NNW 37 46 20 25 1013.1 1011.7 0.0
20/05:00pm 15.2 6.4 1.4 39 6.5 NNW 37 50 20 27 1013.1 1011.7 0.0
20/04:30pm 14.8 4.6 1.0 39 6.4 NNW 44 59 24 32 1013.3 1012.0 0.0
20/04:00pm 15.1 4.7 2.3 42 6.2 NNW 46 59 25 32 1013.5 1012.2 0.0
20/03:33pm 15.2 5.1 1.4 39 6.5 NW 44 67 24 36 1013.8 1012.4 0.0
20/03:30pm 15.5 5.6 2.7 42 6.2 NW 44 61 24 33 1014.0 1012.7 0.0
20/03:00pm 15.1 5.0 1.3 39 6.5 NW 44 67 24 36 1014.3 1013.0 0.0
20/02:54pm 15.7 5.6 1.8 39 6.6 NW 44 67 24 36 1014.3 1013.0 0.0
20/02:30pm 15.4 4.1 1.2 38 6.7 NW 50 63 27 34 1014.2 1012.9 0.0
20/02:09pm 15.3 4.6 -0.1 35 7.0 NW 46 67 25 36 1014.6 1013.3 0.0
20/02:00pm 15.3 3.9 0.3 36 6.9 WNW 50 63 27 34 1015.0 1013.7 0.0
20/01:30pm 15.2 3.6 -0.9 33 7.2 NW 50 65 27 35 1015.1 1013.9 0.0
20/01:00pm 14.7 1.2 -2.2 31 7.4 NNW 59 76 32 41 1015.2 1014.0 0.0
20/12:52pm 14.6 1.6 -1.5 33 7.1 NNW 57 76 31 41 1015.4 1014.1 0.0
20/12:30pm 14.4 1.4 -1.6 33 7.0 NNW 57 72 31 39 1015.5 1014.2 0.0
20/12:09pm 12.8 0.2 -2.3 35 6.4 NW 54 72 29 39 1015.2 1014.0 0.0
20/12:00pm 13.0 0.4 -2.5 34 6.6 NW 54 70 29 38 1015.4 1014.1 0.0
20/11:40am 13.5 1.4 -2.0 34 6.7 NW 52 70 28 38 1015.6 1014.3 0.0
20/11:30am 12.9 0.3 -2.6 34 6.6 NW 54 67 29 36 1015.4 1014.1 0.0
20/11:26am 13.2 1.4 -2.7 33 6.8 NW 50 69 27 37 1015.5 1014.2 0.0
20/11:00am 13.3 0.7 -2.6 33 6.8 NW 54 67 29 36 1015.9 1014.7 0.0
20/10:30am 12.6 -1.0 -2.8 34 6.5 NNW 59 74 32 40 1016.0 1014.8 0.0
20/10:00am 13.2 0.1 -1.9 35 6.5 NNW 57 69 31 37 1016.4 1015.2 0.0
20/09:30am 11.2 -2.3 -2.6 38 5.8 NNW 59 72 32 39 1016.8 1015.6 0.0
20/09:00am 10.2 -2.0 -2.8 40 5.3 NW 52 65 28 35 1016.8 1015.6 0.0
20/08:30am 10.0 -1.1 -2.6 41 5.2 NW 46 59 25 32 1016.6 1015.4 0.0
20/08:00am 11.5 0.8 -2.3 38 5.8 NW 44 59 24 32 1016.5 1015.3 0.0
20/07:30am 11.0 0.3 -2.4 39 5.6 NW 44 57 24 31 1016.6 1015.4 0.0
20/07:00am 10.0 -1.0 -2.3 42 5.1 NW 46 61 25 33 1016.6 1015.4 0.0
20/06:35am 9.5 -2.0 -2.8 42 5.0 NW 48 67 26 36 1016.3 1015.0 0.0
20/06:30am 9.6 -2.3 -3.0 41 5.1 NW 50 67 27 36 1016.3 1015.0 0.0
20/06:03am 9.4 -2.8 -2.8 42 5.0 NW 52 70 28 38 1015.9 1014.7 0.0
20/06:00am 9.3 -3.3 -2.6 43 4.9 NW 54 70 29 38 1015.8 1014.6 0.0
20/05:30am 9.4 -2.9 -3.2 41 5.1 NW 52 70 28 38 1015.4 1014.1 0.0
20/05:16am 9.3 -3.0 -3.3 41 5.1 NW 52 70 28 38 1015.6 1014.3 0.0
20/05:00am 9.4 -2.9 -3.2 41 5.1 NW 52 65 28 35 1015.5 1014.2 0.0
20/04:30am 9.3 -3.0 -3.3 41 5.1 NW 52 70 28 38 1015.2 1014.0 0.0
20/04:29am 9.4 -2.9 -3.5 40 5.2 NW 52 70 28 38 1015.2 1014.0 0.0
20/04:00am 9.2 -2.4 -3.7 40 5.1 NW 48 59 26 32 1015.5 1014.2 0.0
20/03:30am 9.3 -2.3 -3.9 39 5.2 NW 48 61 26 33 1016.2 1014.9 0.0

Other Formats:

Comma delimited format used in spreadsheet applications
http://www.bom.gov.au/fwo/IDN60801/IDN60801.95909.axf

JavaScript Object Notation format (JSON) in row-major order
http://www.bom.gov.au/fwo/IDN60801/IDN60801.95909.json